createdAt,value
2022-11-22T00:01:34.217Z,122.15
2022-11-22T00:04:21.094Z,153.82
2022-11-22T00:06:55.140Z,246.13
2022-11-22T00:09:42.071Z,255.32
2022-11-22T00:12:16.203Z,168.60
2022-11-22T00:15:03.082Z,121.50
2022-11-22T00:17:45.091Z,192.00
2022-11-22T00:20:39.065Z,173.68
2022-11-22T00:23:26.104Z,130.40
2022-11-22T00:26:07.138Z,116.55
2022-11-22T00:28:54.085Z,109.63
2022-11-22T00:31:28.121Z,104.68
2022-11-22T00:34:15.078Z,108.50
2022-11-22T00:36:56.106Z,112.97
2022-11-22T00:39:43.123Z,132.88
2022-11-22T00:42:23.097Z,149.95
2022-11-22T00:45:17.076Z,129.23
2022-11-22T00:48:11.069Z,100.72
2022-11-22T00:50:58.074Z,138.98
2022-11-22T00:53:32.138Z,101.18
2022-11-22T00:56:20.089Z,104.97
2022-11-22T00:59:01.089Z,111.80
2022-11-22T01:01:48.071Z,203.75
2022-11-22T01:04:35.092Z,170.27
2022-11-22T01:07:10.482Z,133.35
2022-11-22T01:09:58.071Z,121.35
2022-11-22T01:12:32.143Z,142.23
2022-11-22T01:15:20.095Z,138.63
2022-11-22T01:17:54.668Z,113.88
2022-11-22T01:20:42.067Z,122.55
2022-11-22T01:23:22.100Z,122.60
2022-11-22T01:26:03.141Z,96.97
2022-11-22T01:28:43.083Z,114.32
2022-11-22T01:31:30.192Z,109.43
2022-11-22T01:34:05.885Z,121.28
2022-11-22T01:36:54.098Z,109.88
2022-11-22T01:39:34.083Z,120.95
2022-11-22T01:42:22.073Z,104.45
2022-11-22T01:44:55.615Z,105.88
2022-11-22T01:47:43.090Z,90.60
2022-11-22T01:50:17.799Z,97.63
2022-11-22T01:53:05.071Z,92.80
2022-11-22T01:55:39.583Z,105.47
2022-11-22T01:58:28.089Z,135.55
2022-11-22T02:01:09.139Z,124.88
2022-11-22T02:03:59.090Z,123.07
2022-11-22T02:09:32.274Z,103.95
2022-11-22T02:12:08.854Z,114.15
2022-11-22T02:14:56.118Z,128.20
2022-11-22T02:17:30.070Z,137.90
2022-11-22T02:20:18.107Z,115.95
2022-11-22T02:23:16.094Z,115.30
2022-11-22T02:26:14.081Z,112.05
2022-11-22T02:29:12.098Z,92.25
2022-11-22T02:31:59.076Z,95.95
2022-11-22T02:34:40.096Z,137.68
2022-11-22T02:37:35.094Z,103.88
2022-11-22T02:40:19.175Z,100.07
2022-11-22T02:43:05.110Z,111.28
2022-11-22T02:45:46.145Z,75.88
2022-11-22T02:48:27.085Z,95.57
2022-11-22T02:51:09.260Z,97.68
2022-11-22T02:53:54.109Z,105.15
2022-11-22T02:56:35.304Z,100.95
2022-11-22T02:59:15.073Z,95.03
2022-11-22T03:02:01.635Z,81.93
2022-11-22T03:04:44.083Z,101.25
2022-11-22T03:07:25.211Z,95.57
2022-11-22T03:10:05.098Z,94.75
2022-11-22T03:12:46.159Z,99.68
2022-11-22T03:15:26.101Z,105.75
2022-11-22T03:18:07.159Z,102.28
2022-11-22T03:20:47.087Z,106.55
2022-11-22T03:23:28.146Z,106.20
2022-11-22T03:26:16.105Z,101.35
2022-11-22T03:28:57.099Z,89.93
2022-11-22T03:31:44.103Z,104.55
2022-11-22T03:34:26.098Z,100.15
2022-11-22T03:37:13.092Z,95.95
2022-11-22T03:39:54.131Z,96.38
2022-11-22T03:42:48.091Z,101.20
2022-11-22T03:45:36.111Z,95.95
2022-11-22T03:48:09.146Z,105.95
2022-11-22T03:50:56.080Z,98.07
2022-11-22T03:53:37.108Z,102.38
2022-11-22T03:56:24.088Z,110.68
2022-11-22T03:58:57.163Z,98.40
2022-11-22T04:01:44.184Z,103.85
2022-11-22T04:04:18.191Z,103.65
2022-11-22T04:07:05.120Z,95.47
2022-11-22T04:09:46.083Z,102.25
2022-11-22T04:12:40.084Z,98.22
2022-11-22T04:15:27.102Z,97.22
2022-11-22T04:18:01.172Z,106.20
2022-11-22T04:21:07.123Z,107.53
2022-11-22T04:23:43.085Z,104.60
2022-11-22T04:26:30.107Z,104.57
2022-11-22T04:29:09.622Z,108.13
2022-11-22T04:32:16.123Z,95.70
2022-11-22T04:34:57.090Z,83.57
2022-11-22T04:37:38.060Z,110.93
2022-11-22T04:40:26.113Z,92.65
2022-11-22T04:43:18.991Z,92.43
2022-11-22T04:46:07.080Z,88.53
2022-11-22T04:48:41.111Z,94.88
2022-11-22T04:51:47.098Z,95.05
2022-11-22T04:54:21.091Z,89.68
2022-11-22T04:57:09.140Z,96.38
2022-11-22T04:59:43.030Z,87.32
2022-11-22T05:02:30.105Z,83.53
2022-11-22T05:05:04.070Z,97.55
2022-11-22T05:07:52.178Z,102.28
2022-11-22T05:10:33.121Z,102.97
2022-11-22T05:13:14.156Z,87.88
2022-11-22T05:15:55.286Z,84.95
2022-11-22T05:18:43.122Z,100.47
2022-11-22T05:21:23.143Z,83.20
2022-11-22T05:24:04.182Z,79.50
2022-11-22T05:26:45.095Z,90.57
2022-11-22T05:29:26.220Z,83.97
2022-11-22T05:32:06.148Z,90.38
2022-11-22T05:34:47.222Z,83.40
2022-11-22T05:37:35.099Z,87.28
2022-11-22T05:40:09.157Z,104.38
2022-11-22T05:42:56.125Z,87.90
2022-11-22T05:45:37.104Z,91.57
2022-11-22T05:48:24.111Z,88.50
2022-11-22T05:50:58.304Z,87.43
2022-11-22T05:53:46.091Z,89.63
2022-11-22T05:56:32.120Z,95.47
2022-11-22T05:59:26.093Z,98.50
2022-11-22T06:02:13.164Z,153.80
2022-11-22T06:04:54.096Z,153.68
2022-11-22T06:07:41.178Z,129.57
2022-11-22T06:10:22.236Z,104.53
2022-11-22T06:13:03.097Z,99.70
2022-11-22T06:15:50.193Z,86.90
2022-11-22T06:18:30.151Z,82.10
2022-11-22T06:21:19.116Z,83.82
2022-11-22T06:24:01.151Z,76.90
2022-11-22T06:26:42.262Z,70.90
2022-11-22T06:29:22.145Z,69.75
2022-11-22T06:32:03.967Z,81.72
2022-11-22T06:34:52.117Z,86.63
2022-11-22T06:37:40.160Z,112.10
2022-11-22T06:40:14.200Z,122.85
2022-11-22T06:43:02.199Z,120.22
2022-11-22T06:45:42.174Z,123.95
2022-11-22T06:48:29.133Z,114.03
2022-11-22T06:51:11.220Z,115.65
2022-11-22T06:53:59.124Z,102.93
2022-11-22T06:56:40.170Z,105.72
2022-11-22T06:59:28.420Z,103.05
2022-11-22T07:02:09.124Z,92.20
2022-11-22T07:05:24.127Z,94.30
2022-11-22T07:07:51.129Z,91.93
2022-11-22T07:10:39.154Z,87.03
2022-11-22T07:13:13.109Z,84.25
2022-11-22T07:16:11.164Z,81.35
2022-11-22T07:18:52.180Z,92.10
2022-11-22T07:21:32.669Z,89.53
2022-11-22T07:24:14.166Z,86.35
2022-11-22T07:26:55.188Z,86.53
2022-11-22T07:29:42.137Z,83.43
2022-11-22T07:32:16.162Z,75.60
2022-11-22T07:35:03.157Z,83.65
2022-11-22T07:37:47.103Z,102.35
2022-11-22T07:40:35.158Z,87.65
2022-11-22T07:43:09.183Z,79.15
2022-11-22T07:45:56.172Z,90.95
2022-11-22T07:48:29.188Z,104.10
2022-11-22T07:51:16.131Z,101.93
2022-11-22T07:53:49.290Z,103.15
2022-11-22T07:56:37.106Z,105.43
2022-11-22T07:59:11.344Z,113.47
2022-11-22T08:01:58.173Z,100.53
2022-11-22T08:04:32.181Z,124.75
2022-11-22T08:07:20.185Z,123.20
2022-11-22T08:09:54.201Z,136.38
2022-11-22T08:12:41.146Z,122.85
2022-11-22T08:15:22.116Z,107.40
2022-11-22T08:18:10.110Z,104.53
2022-11-22T08:20:44.272Z,116.93
2022-11-22T08:23:31.139Z,117.22
2022-11-22T08:26:06.489Z,116.80
2022-11-22T08:28:54.126Z,124.35
2022-11-22T08:31:28.234Z,108.10
2022-11-22T08:34:15.133Z,118.05
2022-11-22T08:36:49.336Z,115.28
2022-11-22T08:39:37.125Z,138.80
2022-11-22T08:42:11.238Z,131.18
2022-11-22T08:44:58.165Z,118.85
2022-11-22T08:47:32.186Z,124.03
2022-11-22T08:50:20.110Z,127.05
2022-11-22T08:53:01.130Z,148.18
2022-11-22T08:55:55.296Z,145.82
2022-11-22T08:58:43.215Z,131.73
2022-11-22T09:01:23.532Z,111.90
2022-11-22T09:04:11.137Z,134.48
2022-11-22T09:09:53.057Z,140.43
2022-11-22T09:12:41.139Z,118.00
2022-11-22T09:15:15.932Z,133.65
2022-11-22T09:18:04.167Z,121.13
2022-11-22T09:20:38.122Z,125.05
2022-11-22T09:23:26.126Z,121.75
2022-11-22T09:26:08.214Z,121.85
2022-11-22T09:28:49.244Z,126.30
2022-11-22T09:31:31.129Z,120.00
2022-11-22T09:34:19.113Z,118.07
2022-11-22T09:36:59.173Z,131.02
2022-11-22T09:39:48.581Z,115.28
2022-11-22T09:42:35.599Z,123.47
2022-11-22T09:45:42.135Z,111.80
2022-11-22T09:48:18.540Z,101.75
2022-11-22T09:51:12.174Z,107.35
2022-11-22T09:53:52.828Z,111.97
2022-11-22T09:56:41.270Z,100.53
2022-11-22T09:59:25.646Z,105.50
2022-11-22T10:02:18.573Z,110.88
2022-11-22T10:05:05.138Z,109.25
2022-11-22T10:07:48.288Z,107.47
2022-11-22T10:10:46.128Z,115.93
2022-11-22T10:13:31.219Z,127.53
2022-11-22T10:16:20.165Z,116.68
2022-11-22T10:19:06.189Z,103.78
2022-11-22T10:21:46.155Z,115.55
2022-11-22T10:24:27.232Z,91.90
2022-11-22T10:27:08.133Z,95.25
2022-11-22T10:30:20.216Z,107.97
2022-11-22T10:33:10.193Z,79.85
2022-11-22T10:35:51.305Z,105.18
2022-11-22T10:38:42.183Z,107.30
2022-11-22T10:42:01.251Z,105.82
2022-11-22T10:45:02.175Z,93.13
2022-11-22T10:47:53.295Z,102.82
2022-11-22T10:50:39.177Z,104.88
2022-11-22T10:53:32.173Z,96.47
2022-11-22T10:56:15.153Z,98.80
2022-11-22T10:59:09.202Z,106.32
2022-11-22T11:02:06.183Z,100.68
2022-11-22T11:04:49.338Z,116.95
2022-11-22T11:07:31.163Z,99.05
2022-11-22T11:10:27.823Z,112.28
2022-11-22T11:13:23.193Z,101.13
2022-11-22T11:16:13.207Z,130.45
2022-11-22T11:19:19.113Z,114.20
2022-11-22T11:22:42.618Z,107.03
2022-11-22T11:25:47.266Z,112.32
2022-11-22T11:28:36.192Z,92.97
2022-11-22T11:31:21.898Z,91.28
2022-11-22T11:34:21.240Z,92.25
2022-11-22T11:37:04.445Z,102.93
2022-11-22T11:39:46.195Z,106.55
2022-11-22T11:42:34.465Z,122.40
2022-11-22T11:45:35.199Z,97.57
2022-11-22T11:48:48.354Z,109.43
2022-11-22T11:51:32.221Z,96.65
2022-11-22T11:54:26.528Z,95.20
2022-11-22T11:57:14.244Z,97.20
2022-11-22T11:59:57.424Z,101.05
2022-11-22T12:02:49.316Z,95.88
2022-11-22T12:05:30.374Z,107.75
2022-11-22T12:08:38.167Z,84.47
2022-11-22T12:11:36.202Z,103.43
2022-11-22T12:14:20.014Z,97.18
2022-11-22T12:17:11.135Z,102.63
2022-11-22T12:19:56.826Z,96.82
2022-11-22T12:23:03.178Z,103.60
2022-11-22T12:25:39.184Z,101.95
2022-11-22T12:28:34.150Z,105.05
2022-11-22T12:31:13.547Z,119.18
2022-11-22T12:34:08.223Z,100.88
2022-11-22T12:37:11.118Z,104.13
2022-11-22T12:40:07.159Z,112.75
2022-11-22T12:43:07.162Z,125.07
2022-11-22T12:45:57.158Z,118.07
2022-11-22T12:51:25.170Z,106.88
2022-11-22T12:54:08.195Z,103.22
2022-11-22T12:57:03.677Z,102.15
2022-11-22T13:00:03.212Z,92.93
2022-11-22T13:03:14.212Z,103.22
2022-11-22T13:05:52.315Z,105.85
2022-11-22T13:09:03.761Z,102.50
2022-11-22T13:11:41.132Z,98.18
2022-11-22T13:17:11.826Z,92.15
2022-11-22T13:20:00.208Z,103.80
2022-11-22T13:22:41.476Z,95.25
2022-11-22T13:25:34.166Z,96.45
2022-11-22T13:28:13.649Z,106.80
2022-11-22T13:31:19.205Z,88.72
2022-11-22T13:33:57.990Z,92.57
2022-11-22T13:36:46.224Z,88.97
2022-11-22T13:39:23.471Z,83.78
2022-11-22T13:42:13.160Z,88.13
2022-11-22T13:47:23.075Z,82.75
2022-11-22T13:50:11.123Z,92.65
2022-11-22T13:52:59.158Z,94.50
2022-11-22T13:55:42.429Z,80.88
2022-11-22T13:58:32.176Z,84.50
2022-11-22T14:01:45.235Z,75.13
2022-11-22T14:04:24.832Z,88.45
2022-11-22T14:07:15.189Z,78.18
2022-11-22T14:09:51.956Z,76.13
2022-11-22T14:13:03.181Z,74.47
2022-11-22T14:15:55.952Z,71.85
2022-11-22T14:18:52.387Z,90.80
2022-11-22T14:21:57.762Z,81.38
2022-11-22T14:24:48.185Z,94.20
2022-11-22T14:27:45.465Z,97.13
2022-11-22T14:33:18.344Z,84.75
2022-11-22T14:36:21.196Z,83.47
2022-11-22T14:39:01.167Z,93.90
2022-11-22T14:41:49.836Z,87.38
2022-11-22T14:44:42.177Z,85.30
2022-11-22T14:47:20.222Z,80.28
2022-11-22T14:50:08.163Z,80.35
2022-11-22T14:52:42.213Z,86.78
2022-11-22T14:55:32.173Z,81.07
2022-11-22T15:00:56.147Z,76.35
2022-11-22T15:09:14.564Z,87.40
2022-11-22T15:09:17.866Z,83.50
2022-11-22T15:10:48.275Z,85.32
2022-11-22T15:13:48.154Z,88.22
2022-11-22T15:59:54.155Z,82.53
2022-11-22T16:02:37.246Z,87.10
2022-11-22T16:06:10.131Z,84.18
2022-11-22T16:08:21.200Z,83.72
2022-11-22T16:11:04.146Z,74.65
2022-11-22T16:13:40.010Z,80.25
2022-11-22T16:16:28.154Z,77.05
2022-11-22T16:19:21.687Z,86.97
2022-11-22T16:22:14.177Z,89.88
2022-11-22T16:24:54.157Z,77.90
2022-11-22T16:27:42.175Z,68.95
2022-11-22T16:30:20.760Z,68.45
2022-11-22T16:33:11.190Z,73.93
2022-11-22T16:35:45.109Z,68.90
2022-11-22T16:38:33.145Z,65.03
2022-11-22T16:41:10.947Z,71.80
2022-11-22T16:43:58.155Z,57.15
2022-11-22T16:46:38.288Z,56.03
2022-11-22T16:49:23.281Z,59.53
2022-11-22T16:52:04.145Z,61.97
2022-11-22T16:54:46.236Z,61.85
2022-11-22T16:57:26.166Z,53.80
2022-11-22T17:00:07.272Z,75.50
2022-11-22T17:02:48.177Z,75.18
2022-11-22T17:05:29.247Z,70.55
2022-11-22T17:08:09.164Z,76.72
2022-11-22T17:11:04.161Z,74.43
2022-11-22T17:13:38.446Z,74.82
2022-11-22T17:16:26.184Z,77.95
2022-11-22T17:27:36.189Z,68.45
2022-11-22T17:30:17.186Z,75.78
2022-11-22T17:33:11.449Z,68.57
2022-11-22T17:35:59.153Z,75.88
2022-11-22T17:38:33.254Z,77.93
2022-11-22T17:41:20.171Z,75.60
2022-11-22T17:43:54.415Z,81.07
2022-11-22T17:46:45.202Z,79.30
2022-11-22T17:49:19.242Z,66.10
2022-11-22T17:52:06.205Z,60.08
2022-11-22T17:54:47.166Z,57.92
2022-11-22T17:57:34.182Z,64.45
2022-11-22T18:00:15.256Z,74.95
2022-11-22T18:02:55.202Z,61.42
2022-11-22T18:05:36.291Z,55.58
2022-11-22T18:08:16.198Z,60.28
2022-11-22T18:11:07.179Z,81.13
2022-11-22T18:13:48.168Z,69.90
2022-11-22T18:16:30.070Z,73.28
2022-11-22T18:19:10.177Z,70.95
2022-11-22T18:21:51.267Z,80.47
2022-11-22T18:24:31.190Z,81.65
2022-11-22T18:27:19.186Z,78.28
2022-11-22T18:29:53.106Z,74.50
2022-11-22T18:32:41.172Z,71.85
2022-11-22T18:35:15.004Z,63.67
2022-11-22T18:38:03.191Z,67.32
2022-11-22T18:40:43.187Z,68.43
2022-11-22T18:43:24.259Z,68.85
2022-11-22T18:46:13.193Z,76.28
2022-11-22T18:48:47.263Z,63.95
2022-11-22T18:51:34.262Z,65.70
2022-11-22T18:54:08.250Z,69.05
2022-11-22T18:56:56.186Z,62.65
2022-11-22T18:59:31.719Z,64.45
2022-11-22T19:02:26.177Z,63.45
2022-11-22T19:05:13.221Z,71.50
2022-11-22T19:07:47.302Z,65.20
2022-11-22T19:10:34.199Z,77.35
2022-11-22T19:13:09.252Z,76.10
2022-11-22T19:15:57.205Z,63.80
2022-11-22T19:18:43.101Z,77.60
2022-11-22T19:21:38.180Z,68.25
2022-11-22T19:24:32.398Z,72.00
2022-11-22T19:27:26.185Z,82.35
2022-11-22T19:30:14.229Z,73.10
2022-11-22T19:32:55.171Z,84.10
2022-11-22T19:35:49.190Z,53.90
2022-11-22T19:38:36.176Z,53.53
2022-11-22T19:41:18.257Z,63.88
2022-11-22T19:44:00.210Z,63.75
2022-11-22T19:46:48.170Z,75.30
2022-11-22T19:49:28.518Z,68.50
2022-11-22T19:52:16.194Z,59.60
2022-11-22T19:54:57.208Z,74.75
2022-11-22T19:57:38.242Z,66.50
2022-11-22T20:00:19.182Z,81.55
2022-11-22T20:03:00.377Z,66.25
2022-11-22T20:05:41.182Z,54.50
2022-11-22T20:08:28.184Z,62.83
2022-11-22T20:11:03.136Z,61.30
2022-11-22T20:13:56.168Z,62.90
2022-11-22T20:16:31.052Z,63.20
2022-11-22T20:19:19.189Z,57.67
2022-11-22T20:21:53.151Z,53.33
2022-11-22T20:24:41.217Z,65.43
2022-11-22T20:27:24.350Z,66.40
2022-11-22T20:30:12.187Z,61.58
2022-11-22T20:32:45.750Z,71.43
2022-11-22T20:35:33.200Z,59.78
2022-11-22T20:38:06.716Z,74.43
2022-11-22T20:40:53.197Z,57.60
2022-11-22T20:43:34.223Z,56.30
2022-11-22T20:46:30.186Z,65.43
2022-11-22T20:49:24.180Z,56.50
2022-11-22T20:52:12.191Z,65.80
2022-11-22T20:54:53.196Z,67.60
2022-11-22T20:57:47.224Z,52.53
2022-11-22T21:00:34.212Z,71.40
2022-11-22T21:03:08.203Z,51.20
2022-11-22T21:05:59.177Z,71.63
2022-11-22T21:08:32.758Z,70.45
2022-11-22T21:11:24.170Z,61.05
2022-11-22T21:13:58.274Z,63.03
2022-11-22T21:16:45.253Z,69.32
2022-11-22T21:19:19.306Z,56.75
2022-11-22T21:22:09.197Z,66.57
2022-11-22T21:24:50.184Z,71.85
2022-11-22T21:27:44.212Z,77.47
2022-11-22T21:30:31.195Z,66.25
2022-11-22T21:33:05.306Z,68.78
2022-11-22T21:35:52.212Z,65.88
2022-11-22T21:38:33.245Z,70.57
2022-11-22T21:44:27.191Z,68.80
2022-11-22T21:47:01.231Z,61.38
2022-11-22T21:49:49.179Z,61.15
2022-11-22T21:52:23.145Z,67.53
2022-11-22T21:55:11.213Z,59.35
2022-11-22T21:57:45.103Z,67.45
2022-11-22T22:00:33.212Z,69.82
2022-11-22T22:03:07.129Z,69.38
2022-11-22T22:05:55.208Z,75.55
2022-11-22T22:08:37.239Z,69.80
2022-11-22T22:11:18.315Z,57.78
2022-11-22T22:14:02.205Z,66.57
2022-11-22T22:16:43.211Z,59.40
2022-11-22T22:19:23.195Z,62.80
2022-11-22T22:22:04.257Z,60.75
2022-11-22T22:24:44.213Z,57.42
2022-11-22T22:27:32.202Z,58.50
2022-11-22T22:30:06.567Z,74.55
2022-11-22T22:32:54.219Z,55.47
2022-11-22T22:35:28.167Z,55.95
2022-11-22T22:38:16.211Z,66.25
2022-11-22T22:41:15.189Z,72.15
2022-11-22T22:44:02.184Z,66.28
2022-11-22T22:46:36.327Z,71.72
2022-11-22T22:49:23.178Z,77.45
2022-11-22T22:51:56.307Z,81.78
2022-11-22T22:54:37.195Z,74.53
2022-11-22T22:57:17.307Z,73.22
2022-11-22T22:59:58.211Z,61.85
2022-11-22T23:02:38.277Z,62.97
2022-11-22T23:05:19.229Z,62.95
2022-11-22T23:08:00.209Z,65.75
2022-11-22T23:10:34.278Z,55.58
2022-11-22T23:13:21.198Z,65.40
2022-11-22T23:15:58.865Z,66.32
2022-11-22T23:21:15.117Z,51.58
2022-11-22T23:24:03.194Z,67.05
2022-11-22T23:26:37.208Z,48.05
2022-11-22T23:29:25.178Z,57.35
2022-11-22T23:31:59.142Z,56.38
2022-11-22T23:34:47.204Z,57.35
2022-11-22T23:37:20.764Z,56.85
2022-11-22T23:40:08.203Z,60.20
2022-11-22T23:42:42.180Z,61.53
2022-11-22T23:45:30.227Z,54.80
2022-11-22T23:48:10.215Z,55.63
2022-11-22T23:50:51.287Z,63.92
2022-11-22T23:53:32.205Z,58.80
2022-11-22T23:56:17.964Z,65.53
2022-11-22T23:59:02.943Z,65.75
